Irish Sea — WDB5555 — position and weather

sailwx.info

Track history (hours):
 
Tides and Currents Weather Stations Pressure Air Temp Water Temp Dewpoint Dewpoint Depression Visibility Wind Speed Wind Dir Waves Ship Positions

Irish Sea

Owner: Kirby Offshore Marine, LLC, Staten Island, NY. More information available from US FCC via Universal Licensing System and Coast Guard Vessel Documentation Center.

Last reported at 2014-Oct-25 08:17 UTC. Time now 2014-Oct-25 08:48 UTC.
Position N 41°10' W 073°10'.

Length 152 m; draft 6.8 m.

Type: Ship (hazmat cat B). MMSI: 366910920.

Date/timePositionNaut miles runAvg speedWind from/ knotsBaromVisibWave heightAir tempDewpointWater temp
2014-Oct-25 08:17N 41°10' W 073°10'0 0.0
2014-Oct-25 07:32N 41°10' W 073°10'0 0.0
2014-Oct-25 06:29N 41°10' W 073°10'14 1.2
2014-Oct-24 18:33N 41°00' W 073°24'29 7.0
2014-Oct-24 14:24N 40°46' W 073°57'5 6.1
2014-Oct-24 13:33N 40°41' W 074°01'6 5.8
2014-Oct-24 12:33N 40°35' W 074°02'55 6.9
2014-Oct-24 04:33N 39°40' W 074°02'7 6.7
2014-Oct-24 03:33N 39°34' W 074°06'62 2.4
2014-Oct-23 01:08N 39°19' W 075°24'5 0.7
2014-Oct-22 17:33N 39°23' W 075°29'7 7.5
2014-Oct-22 16:34N 39°30' W 075°34'6 5.6
2014-Oct-22 15:34N 39°35' W 075°35'0 0.3
2014-Oct-22 14:34N 39°35' W 075°36'0 0.2
2014-Oct-22 13:33N 39°35' W 075°35'0 0.2
2014-Oct-22 12:31N 39°35' W 075°36'0 0.0
2014-Oct-22 11:31N 39°35' W 075°36'0 0.0
2014-Oct-22 10:31N 39°35' W 075°36'0 0.0
2014-Oct-22 09:31N 39°35' W 075°36'0 0.0
2014-Oct-22 08:25N 39°35' W 075°36'0 0.0
2014-Oct-22 07:31N 39°35' W 075°36'0 0.0
2014-Oct-22 06:31N 39°35' W 075°36'0 0.0
2014-Oct-22 05:31N 39°35' W 075°36'0 0.0
2014-Oct-22 04:28N 39°35' W 075°36'0 0.0
2014-Oct-22 03:31N 39°35' W 075°36'0 0.0
2014-Oct-22 02:31N 39°35' W 075°36'0 0.0
2014-Oct-22 01:31N 39°35' W 075°36'0 0.0
2014-Oct-22 00:31N 39°35' W 075°36'0 0.0
2014-Oct-21 23:31N 39°35' W 075°36'0 0.0
2014-Oct-21 22:31N 39°35' W 075°36'0 0.0
2014-Oct-21 21:31N 39°35' W 075°36'0 0.0
2014-Oct-21 20:31N 39°35' W 075°36'0 0.2
2014-Oct-21 19:33N 39°35' W 075°35'3 2.8
2014-Oct-21 18:32N 39°33' W 075°33'0 0.0
2014-Oct-21 17:32N 39°33' W 075°33'0 0.1
2014-Oct-21 16:32N 39°33' W 075°33'0 0.2
2014-Oct-21 15:32N 39°33' W 075°33'0 0.0
2014-Oct-21 14:32N 39°33' W 075°33'0 0.0
2014-Oct-21 13:32N 39°33' W 075°33'0 0.0
2014-Oct-21 12:32N 39°33' W 075°33'0 0.0
2014-Oct-21 11:32N 39°33' W 075°33'0 0.1
2014-Oct-21 10:32N 39°33' W 075°33'0 0.2
2014-Oct-21 09:32N 39°33' W 075°33'0 0.0
2014-Oct-21 08:32N 39°33' W 075°33'0 0.0
2014-Oct-21 07:32N 39°33' W 075°33'0 0.0
2014-Oct-21 06:29N 39°33' W 075°33'0 0.0
2014-Oct-21 05:31N 39°33' W 075°33'0 0.0
2014-Oct-21 04:31N 39°33' W 075°33'0 0.2
2014-Oct-21 03:31N 39°33' W 075°33'0 0.0
2014-Oct-21 02:28N 39°33' W 075°33'0 0.0
2014-Oct-21 01:31N 39°33' W 075°33'0 0.0
2014-Oct-21 00:31N 39°33' W 075°33'0 0.0
2014-Oct-20 23:31N 39°33' W 075°33'3 2.8
2014-Oct-20 22:33N 39°31' W 075°33'94 5.1
2014-Oct-20 04:07N 40°32' W 074°01'611.4
2014-Oct-20 03:33N 40°38' W 074°04'5 4.7
2014-Oct-20 02:33N 40°39' W 074°10'0 0.0
2014-Oct-19 21:31N 40°39' W 074°10'0 0.0
2014-Oct-19 20:31N 40°39' W 074°10'5 4.5
2014-Oct-19 19:31N 40°39' W 074°04'7 7.3
2014-Oct-19 18:33N 40°45' W 073°58'0 0.0
2014-Oct-18 22:33N 40°45' W 073°58'4 4.3
2014-Oct-18 21:34N 40°41' W 074°01'2 2.1
2014-Oct-18 20:33N 40°39' W 074°03'0 0.0
2014-Oct-18 19:34N 40°39' W 074°03'0 0.0
2014-Oct-18 18:33N 40°39' W 074°03'0 0.2
2014-Oct-18 17:34N 40°39' W 074°03'49 7.0
2014-Oct-18 10:31N 39°50' W 073°58'7 7.8
2014-Oct-18 09:33N 39°43' W 074°00'8 7.9
2014-Oct-18 08:32N 39°36' W 074°05'66 4.7
2014-Oct-17 18:33N 39°23' W 075°29'8 7.6
2014-Oct-17 17:33N 39°30' W 075°34'6 5.4
2014-Oct-17 16:32N 39°35' W 075°36'0 0.0
2014-Oct-17 15:32N 39°35' W 075°36'0 0.0
2014-Oct-17 14:32N 39°35' W 075°36'0 0.0
2014-Oct-17 13:32N 39°35' W 075°36'0 0.0
2014-Oct-17 12:32N 39°35' W 075°36'0 0.0
2014-Oct-17 11:32N 39°35' W 075°36'0 0.0
2014-Oct-17 10:32N 39°35' W 075°36'0 0.0
2014-Oct-17 09:32N 39°35' W 075°36'0 0.0
2014-Oct-17 08:32N 39°35' W 075°36'0 0.0
2014-Oct-17 07:32N 39°35' W 075°36'0 0.0
2014-Oct-17 06:32N 39°35' W 075°36'0 0.0
2014-Oct-17 05:32N 39°35' W 075°36'0 0.0
2014-Oct-17 04:32N 39°35' W 075°36'0 0.0
2014-Oct-17 03:32N 39°35' W 075°36'0 0.0
2014-Oct-17 02:32N 39°35' W 075°36'0 0.0
2014-Oct-17 01:32N 39°35' W 075°36'0 0.0
2014-Oct-17 00:32N 39°35' W 075°36'0 0.0
2014-Oct-16 23:32N 39°35' W 075°36'0 0.0
2014-Oct-16 22:32N 39°35' W 075°36'0 0.0
2014-Oct-16 21:32N 39°35' W 075°36'0 0.0
2014-Oct-16 20:32N 39°35' W 075°36'0 0.0
2014-Oct-16 19:29N 39°35' W 075°36'  
Track history (hours):
 
Tides and Currents Weather Stations Pressure Air Temp Water Temp Dewpoint Dewpoint Depression Visibility Wind Speed Wind Dir Waves Ship Positions

Irish Sea

Owner: Kirby Offshore Marine, LLC, Staten Island, NY. More information available from US FCC via Universal Licensing System and Coast Guard Vessel Documentation Center.

Last reported at 2014-Oct-25 08:17 UTC. Time now 2014-Oct-25 08:48 UTC.
Position N 41°10' W 073°10'.

Length 152 m; draft 6.8 m.

Type: Ship (hazmat cat B). MMSI: 366910920.

Date/timePositionNaut miles runAvg speedWind from/ knotsBaromVisibWave heightAir tempDewpointWater temp
2014-Oct-25 08:17N 41°10' W 073°10'0 0.0
2014-Oct-25 07:32N 41°10' W 073°10'0 0.0
2014-Oct-25 06:29N 41°10' W 073°10'14 1.2
2014-Oct-24 18:33N 41°00' W 073°24'29 7.0
2014-Oct-24 14:24N 40°46' W 073°57'5 6.1
2014-Oct-24 13:33N 40°41' W 074°01'6 5.8
2014-Oct-24 12:33N 40°35' W 074°02'55 6.9
2014-Oct-24 04:33N 39°40' W 074°02'7 6.7
2014-Oct-24 03:33N 39°34' W 074°06'62 2.4
2014-Oct-23 01:08N 39°19' W 075°24'5 0.7
2014-Oct-22 17:33N 39°23' W 075°29'7 7.5
2014-Oct-22 16:34N 39°30' W 075°34'6 5.6
2014-Oct-22 15:34N 39°35' W 075°35'0 0.3
2014-Oct-22 14:34N 39°35' W 075°36'0 0.2
2014-Oct-22 13:33N 39°35' W 075°35'0 0.2
2014-Oct-22 12:31N 39°35' W 075°36'0 0.0
2014-Oct-22 11:31N 39°35' W 075°36'0 0.0
2014-Oct-22 10:31N 39°35' W 075°36'0 0.0
2014-Oct-22 09:31N 39°35' W 075°36'0 0.0
2014-Oct-22 08:25N 39°35' W 075°36'0 0.0
2014-Oct-22 07:31N 39°35' W 075°36'0 0.0
2014-Oct-22 06:31N 39°35' W 075°36'0 0.0
2014-Oct-22 05:31N 39°35' W 075°36'0 0.0
2014-Oct-22 04:28N 39°35' W 075°36'0 0.0
2014-Oct-22 03:31N 39°35' W 075°36'0 0.0
2014-Oct-22 02:31N 39°35' W 075°36'0 0.0
2014-Oct-22 01:31N 39°35' W 075°36'0 0.0
2014-Oct-22 00:31N 39°35' W 075°36'0 0.0
2014-Oct-21 23:31N 39°35' W 075°36'0 0.0
2014-Oct-21 22:31N 39°35' W 075°36'0 0.0
2014-Oct-21 21:31N 39°35' W 075°36'0 0.0
2014-Oct-21 20:31N 39°35' W 075°36'0 0.2
2014-Oct-21 19:33N 39°35' W 075°35'3 2.8
2014-Oct-21 18:32N 39°33' W 075°33'0 0.0
2014-Oct-21 17:32N 39°33' W 075°33'0 0.1
2014-Oct-21 16:32N 39°33' W 075°33'0 0.2
2014-Oct-21 15:32N 39°33' W 075°33'0 0.0
2014-Oct-21 14:32N 39°33' W 075°33'0 0.0
2014-Oct-21 13:32N 39°33' W 075°33'0 0.0
2014-Oct-21 12:32N 39°33' W 075°33'0 0.0
2014-Oct-21 11:32N 39°33' W 075°33'0 0.1
2014-Oct-21 10:32N 39°33' W 075°33'0 0.2
2014-Oct-21 09:32N 39°33' W 075°33'0 0.0
2014-Oct-21 08:32N 39°33' W 075°33'0 0.0
2014-Oct-21 07:32N 39°33' W 075°33'0 0.0
2014-Oct-21 06:29N 39°33' W 075°33'0 0.0
2014-Oct-21 05:31N 39°33' W 075°33'0 0.0
2014-Oct-21 04:31N 39°33' W 075°33'0 0.2
2014-Oct-21 03:31N 39°33' W 075°33'0 0.0
2014-Oct-21 02:28N 39°33' W 075°33'0 0.0
2014-Oct-21 01:31N 39°33' W 075°33'0 0.0
2014-Oct-21 00:31N 39°33' W 075°33'0 0.0
2014-Oct-20 23:31N 39°33' W 075°33'3 2.8
2014-Oct-20 22:33N 39°31' W 075°33'94 5.1
2014-Oct-20 04:07N 40°32' W 074°01'611.4
2014-Oct-20 03:33N 40°38' W 074°04'5 4.7
2014-Oct-20 02:33N 40°39' W 074°10'0 0.0
2014-Oct-19 21:31N 40°39' W 074°10'0 0.0
2014-Oct-19 20:31N 40°39' W 074°10'5 4.5
2014-Oct-19 19:31N 40°39' W 074°04'7 7.3
2014-Oct-19 18:33N 40°45' W 073°58'0 0.0
2014-Oct-18 22:33N 40°45' W 073°58'4 4.3
2014-Oct-18 21:34N 40°41' W 074°01'2 2.1
2014-Oct-18 20:33N 40°39' W 074°03'0 0.0
2014-Oct-18 19:34N 40°39' W 074°03'0 0.0
2014-Oct-18 18:33N 40°39' W 074°03'0 0.2
2014-Oct-18 17:34N 40°39' W 074°03'49 7.0
2014-Oct-18 10:31N 39°50' W 073°58'7 7.8
2014-Oct-18 09:33N 39°43' W 074°00'8 7.9
2014-Oct-18 08:32N 39°36' W 074°05'66 4.7
2014-Oct-17 18:33N 39°23' W 075°29'8 7.6
2014-Oct-17 17:33N 39°30' W 075°34'6 5.4
2014-Oct-17 16:32N 39°35' W 075°36'0 0.0
2014-Oct-17 15:32N 39°35' W 075°36'0 0.0
2014-Oct-17 14:32N 39°35' W 075°36'0 0.0
2014-Oct-17 13:32N 39°35' W 075°36'0 0.0
2014-Oct-17 12:32N 39°35' W 075°36'0 0.0
2014-Oct-17 11:32N 39°35' W 075°36'0 0.0
2014-Oct-17 10:32N 39°35' W 075°36'0 0.0
2014-Oct-17 09:32N 39°35' W 075°36'0 0.0
2014-Oct-17 08:32N 39°35' W 075°36'0 0.0
2014-Oct-17 07:32N 39°35' W 075°36'0 0.0
2014-Oct-17 06:32N 39°35' W 075°36'0 0.0
2014-Oct-17 05:32N 39°35' W 075°36'0 0.0
2014-Oct-17 04:32N 39°35' W 075°36'0 0.0
2014-Oct-17 03:32N 39°35' W 075°36'0 0.0
2014-Oct-17 02:32N 39°35' W 075°36'0 0.0
2014-Oct-17 01:32N 39°35' W 075°36'0 0.0
2014-Oct-17 00:32N 39°35' W 075°36'0 0.0
2014-Oct-16 23:32N 39°35' W 075°36'0 0.0
2014-Oct-16 22:32N 39°35' W 075°36'0 0.0
2014-Oct-16 21:32N 39°35' W 075°36'0 0.0
2014-Oct-16 20:32N 39°35' W 075°36'0 0.0
2014-Oct-16 19:29N 39°35' W 075°36'  

Dump ship's entire track history